sensor_id;sensor_type;location;lat;lon;timestamp;pressure;altitude;pressure_sealevel;temperature;humidity
57616;BME280;43816;52.054;-9.494;2023-03-15T00:00:09;100871.84;;;16.46;42.36
57616;BME280;43816;52.054;-9.494;2023-03-15T00:00:19;100887.22;;;16.55;42.63
57616;BME280;43816;52.054;-9.494;2023-03-15T00:00:30;100881.78;;;16.55;42.48
57616;BME280;43816;52.054;-9.494;2023-03-15T00:00:43;100885.53;;;16.54;42.38
57616;BME280;43816;52.054;-9.494;2023-03-15T00:00:54;100877.81;;;16.50;42.49
57616;BME280;43816;52.054;-9.494;2023-03-15T00:01:16;100888.22;;;16.54;42.79
57616;BME280;43816;52.054;-9.494;2023-03-15T00:01:27;100888.38;;;16.53;42.70
57616;BME280;43816;52.054;-9.494;2023-03-15T00:01:37;100888.38;;;16.53;42.35
57616;BME280;43816;52.054;-9.494;2023-03-15T00:01:47;100873.00;;;16.43;42.92
57616;BME280;43816;52.054;-9.494;2023-03-15T00:01:59;100893.38;;;16.57;42.40
57616;BME280;43816;52.054;-9.494;2023-03-15T00:02:10;100875.94;;;16.50;42.29
57616;BME280;43816;52.054;-9.494;2023-03-15T00:02:20;100889.22;;;16.53;42.43
57616;BME280;43816;52.054;-9.494;2023-03-15T00:02:30;100886.81;;;16.50;42.78
57616;BME280;43816;52.054;-9.494;2023-03-15T00:02:41;100889.22;;;16.53;42.30
57616;BME280;43816;52.054;-9.494;2023-03-15T00:02:51;100889.53;;;16.50;42.59
57616;BME280;43816;52.054;-9.494;2023-03-15T00:03:01;100878.66;;;16.50;42.63
57616;BME280;43816;52.054;-9.494;2023-03-15T00:03:11;100894.34;;;16.56;42.35
57616;BME280;43816;52.054;-9.494;2023-03-15T00:03:22;100896.22;;;16.56;42.73
57616;BME280;43816;52.054;-9.494;2023-03-15T00:03:32;100871.84;;;16.46;42.55
57616;BME280;43816;52.054;-9.494;2023-03-15T00:03:43;100885.81;;;16.51;42.59
57616;BME280;43816;52.054;-9.494;2023-03-15T00:03:54;100891.78;;;16.55;42.39
57616;BME280;43816;52.054;-9.494;2023-03-15T00:04:04;100879.53;;;16.51;42.41
57616;BME280;43816;52.054;-9.494;2023-03-15T00:04:14;100897.06;;;16.56;42.69
57616;BME280;43816;52.054;-9.494;2023-03-15T00:04:26;100877.28;;;16.46;42.76
57616;BME280;43816;52.054;-9.494;2023-03-15T00:04:36;100900.63;;;16.57;42.62
57616;BME280;43816;52.054;-9.494;2023-03-15T00:04:47;100893.66;;;16.54;42.53
57616;BME280;43816;52.054;-9.494;2023-03-15T00:04:57;100890.25;;;16.52;42.35
57616;BME280;43816;52.054;-9.494;2023-03-15T00:05:10;100892.50;;;16.57;42.60
57616;BME280;43816;52.054;-9.494;2023-03-15T00:05:20;100888.53;;;16.51;42.59
57616;BME280;43816;52.054;-9.494;2023-03-15T00:05:31;100881.53;;;16.49;42.81
57616;BME280;43816;52.054;-9.494;2023-03-15T00:05:43;100882.13;;;16.52;42.57
57616;BME280;43816;52.054;-9.494;2023-03-15T00:05:53;100889.53;;;16.50;42.64
57616;BME280;43816;52.054;-9.494;2023-03-15T00:06:04;100896.22;;;16.56;42.35
57616;BME280;43816;52.054;-9.494;2023-03-15T00:06:15;100894.34;;;16.56;42.46
57616;BME280;43816;52.054;-9.494;2023-03-15T00:06:26;100894.34;;;16.56;42.94
57616;BME280;43816;52.054;-9.494;2023-03-15T00:06:36;100899.09;;;16.54;42.55
57616;BME280;43816;52.054;-9.494;2023-03-15T00:06:46;100890.25;;;16.52;42.70
57616;BME280;43816;52.054;-9.494;2023-03-15T00:06:57;100892.63;;;16.55;42.38
57616;BME280;43816;52.054;-9.494;2023-03-15T00:07:08;100884.09;;;16.50;42.47
57616;BME280;43816;52.054;-9.494;2023-03-15T00:07:18;100865.19;;;16.40;42.23
57616;BME280;43816;52.054;-9.494;2023-03-15T00:07:28;100890.09;;;16.54;42.78
57616;BME280;43816;52.054;-9.494;2023-03-15T00:07:39;100897.91;;;16.57;42.38
57616;BME280;43816;52.054;-9.494;2023-03-15T00:07:49;100884.44;;;16.47;42.50
57616;BME280;43816;52.054;-9.494;2023-03-15T00:07:59;100900.63;;;16.57;42.70
57616;BME280;43816;52.054;-9.494;2023-03-15T00:08:10;100883.25;;;16.50;42.79
57616;BME280;43816;52.054;-9.494;2023-03-15T00:08:20;100874.19;;;16.41;42.35
57616;BME280;43816;52.054;-9.494;2023-03-15T00:08:31;100867.03;;;16.40;42.75
57616;BME280;43816;52.054;-9.494;2023-03-15T00:08:41;100886.97;;;16.49;42.69
57616;BME280;43816;52.054;-9.494;2023-03-15T00:08:51;100888.38;;;16.53;42.67
57616;BME280;43816;52.054;-9.494;2023-03-15T00:09:02;100871.31;;;16.42;42.44
57616;BME280;43816;52.054;-9.494;2023-03-15T00:09:12;100868.75;;;16.41;42.87
57616;BME280;43816;52.054;-9.494;2023-03-15T00:09:23;100888.53;;;16.51;42.54
57616;BME280;43816;52.054;-9.494;2023-03-15T00:09:33;100883.25;;;16.50;42.85
57616;BME280;43816;52.054;-9.494;2023-03-15T00:09:43;100885.81;;;16.51;42.23
57616;BME280;43816;52.054;-9.494;2023-03-15T00:09:53;100892.97;;;16.52;42.27
57616;BME280;43816;52.054;-9.494;2023-03-15T00:10:04;100856.78;;;16.34;42.33
57616;BME280;43816;52.054;-9.494;2023-03-15T00:10:15;100882.72;;;16.46;42.53
57616;BME280;43816;52.054;-9.494;2023-03-15T00:10:25;100886.66;;;16.52;42.32
57616;BME280;43816;52.054;-9.494;2023-03-15T00:10:39;100880.00;;;16.46;42.42
57616;BME280;43816;52.054;-9.494;2023-03-15T00:10:49;100882.41;;;16.49;42.76
57616;BME280;43816;52.054;-9.494;2023-03-15T00:11:00;100890.09;;;16.54;42.80
57616;BME280;43816;52.054;-9.494;2023-03-15T00:11:11;100874.88;;;16.43;42.52
57616;BME280;43816;52.054;-9.494;2023-03-15T00:11:21;100872.47;;;16.40;42.44
57616;BME280;43816;52.054;-9.494;2023-03-15T00:11:31;100827.22;;;16.13;42.32
57616;BME280;43816;52.054;-9.494;2023-03-15T00:11:41;100870.78;;;16.39;42.60
57616;BME280;43816;52.054;-9.494;2023-03-15T00:11:52;100886.81;;;16.50;42.89
57616;BME280;43816;52.054;-9.494;2023-03-15T00:12:03;100892.09;;;16.52;42.91
57616;BME280;43816;52.054;-9.494;2023-03-15T00:12:16;100887.84;;;16.49;42.86
57616;BME280;43816;52.054;-9.494;2023-03-15T00:12:26;100892.97;;;16.52;42.36
57616;BME280;43816;52.054;-9.494;2023-03-15T00:12:40;100865.34;;;16.39;42.46
57616;BME280;43816;52.054;-9.494;2023-03-15T00:12:50;100877.28;;;16.46;42.55
57616;BME280;43816;52.054;-9.494;2023-03-15T00:13:00;100881.88;;;16.45;42.25
57616;BME280;43816;52.054;-9.494;2023-03-15T00:13:12;100874.41;;;16.48;42.69
57616;BME280;43816;52.054;-9.494;2023-03-15T00:13:23;100893.81;;;16.53;42.45
57616;BME280;43816;52.054;-9.494;2023-03-15T00:13:33;100873.00;;;16.43;42.77
57616;BME280;43816;52.054;-9.494;2023-03-15T00:13:44;100869.28;;;16.44;42.80
57616;BME280;43816;52.054;-9.494;2023-03-15T00:13:58;100881.53;;;16.49;42.58
57616;BME280;43816;52.054;-9.494;2023-03-15T00:14:09;100889.22;;;16.53;42.61
57616;BME280;43816;52.054;-9.494;2023-03-15T00:14:20;100867.56;;;16.43;42.51
57616;BME280;43816;52.054;-9.494;2023-03-15T00:14:30;100877.28;;;16.46;42.44
57616;BME280;43816;52.054;-9.494;2023-03-15T00:14:40;100878.38;;;16.53;42.53
57616;BME280;43816;52.054;-9.494;2023-03-15T00:14:50;100867.72;;;16.42;42.54
57616;BME280;43816;52.054;-9.494;2023-03-15T00:15:01;100888.22;;;16.54;42.82
57616;BME280;43816;52.054;-9.494;2023-03-15T00:15:14;100885.81;;;16.51;42.46
57616;BME280;43816;52.054;-9.494;2023-03-15T00:15:24;100846.09;;;16.32;42.60
57616;BME280;43816;52.054;-9.494;2023-03-15T00:15:35;100867.91;;;16.40;42.92
57616;BME280;43816;52.054;-9.494;2023-03-15T00:15:47;100885.53;;;16.54;42.72
57616;BME280;43816;52.054;-9.494;2023-03-15T00:16:00;100881.09;;;16.53;42.98
57616;BME280;43816;52.054;-9.494;2023-03-15T00:16:11;100864.00;;;16.43;42.47
57616;BME280;43816;52.054;-9.494;2023-03-15T00:16:21;100878.53;;;16.52;42.40
57616;BME280;43816;52.054;-9.494;2023-03-15T00:16:32;100882.13;;;16.52;42.75
57616;BME280;43816;52.054;-9.494;2023-03-15T00:16:43;100870.84;;;16.47;43.03
57616;BME280;43816;52.054;-9.494;2023-03-15T00:16:53;100876.97;;;16.49;42.67
57616;BME280;43816;52.054;-9.494;2023-03-15T00:17:03;100874.13;;;16.51;42.51
57616;BME280;43816;52.054;-9.494;2023-03-15T00:17:14;100880.38;;;16.51;42.62
57616;BME280;43816;52.054;-9.494;2023-03-15T00:17:24;100885.53;;;16.54;42.78
57616;BME280;43816;52.054;-9.494;2023-03-15T00:17:35;100860.44;;;16.42;42.53
57616;BME280;43816;52.054;-9.494;2023-03-15T00:17:45;100878.53;;;16.52;42.79
57616;BME280;43816;52.054;-9.494;2023-03-15T00:17:56;100870.13;;;16.45;42.85
57616;BME280;43816;52.054;-9.494;2023-03-15T00:18:06;100871.84;;;16.46;42.70
57616;BME280;43816;52.054;-9.494;2023-03-15T00:18:17;100881.97;;;16.54;42.72
57616;BME280;43816;52.054;-9.494;2023-03-15T00:18:28;100882.13;;;16.52;42.63
57616;BME280;43816;52.054;-9.494;2023-03-15T00:18:39;100873.88;;;16.44;42.67
57616;BME280;43816;52.054;-9.494;2023-03-15T00:18:49;100878.13;;;16.46;42.65
57616;BME280;43816;52.054;-9.494;2023-03-15T00:18:59;100876.28;;;16.47;42.74
57616;BME280;43816;52.054;-9.494;2023-03-15T00:19:10;100880.53;;;16.50;42.47
57616;BME280;43816;52.054;-9.494;2023-03-15T00:19:20;100883.94;;;16.52;42.88
57616;BME280;43816;52.054;-9.494;2023-03-15T00:19:33;100872.84;;;16.45;42.49
57616;BME280;43816;52.054;-9.494;2023-03-15T00:19:44;100877.81;;;16.50;42.81
57616;BME280;43816;52.054;-9.494;2023-03-15T00:19:54;100870.69;;;16.49;42.34
57616;BME280;43816;52.054;-9.494;2023-03-15T00:20:05;100880.38;;;16.51;42.68
57616;BME280;43816;52.054;-9.494;2023-03-15T00:20:15;100889.22;;;16.53;42.58
57616;BME280;43816;52.054;-9.494;2023-03-15T00:20:26;100881.22;;;16.52;42.63
57616;BME280;43816;52.054;-9.494;2023-03-15T00:20:36;100862.13;;;16.43;42.85
57616;BME280;43816;52.054;-9.494;2023-03-15T00:20:47;100863.31;;;16.41;42.65
57616;BME280;43816;52.054;-9.494;2023-03-15T00:20:57;100883.25;;;16.50;42.43
57616;BME280;43816;52.054;-9.494;2023-03-15T00:21:08;100839.41;;;16.26;42.83
57616;BME280;43816;52.054;-9.494;2023-03-15T00:21:18;100884.09;;;16.50;42.69
57616;BME280;43816;52.054;-9.494;2023-03-15T00:21:29;100854.63;;;16.37;42.87
57616;BME280;43816;52.054;-9.494;2023-03-15T00:21:40;100887.53;;;16.52;43.06
57616;BME280;43816;52.054;-9.494;2023-03-15T00:21:50;100874.41;;;16.48;43.08
57616;BME280;43816;52.054;-9.494;2023-03-15T00:22:00;100859.75;;;16.40;42.73
57616;BME280;43816;52.054;-9.494;2023-03-15T00:22:11;100866.03;;;16.41;42.70
57616;BME280;43816;52.054;-9.494;2023-03-15T00:22:21;100879.53;;;16.51;42.45
57616;BME280;43816;52.054;-9.494;2023-03-15T00:22:31;100873.88;;;16.44;42.65
57616;BME280;43816;52.054;-9.494;2023-03-15T00:22:41;100867.41;;;16.45;42.45
57616;BME280;43816;52.054;-9.494;2023-03-15T00:22:52;100868.44;;;16.44;42.80
57616;BME280;43816;52.054;-9.494;2023-03-15T00:23:02;100876.97;;;16.49;42.56
57616;BME280;43816;52.054;-9.494;2023-03-15T00:23:13;100876.69;;;16.52;42.93
57616;BME280;43816;52.054;-9.494;2023-03-15T00:23:23;100853.91;;;16.35;42.96
57616;BME280;43816;52.054;-9.494;2023-03-15T00:23:34;100871.84;;;16.46;42.50
57616;BME280;43816;52.054;-9.494;2023-03-15T00:23:44;100884.09;;;16.50;42.56
57616;BME280;43816;52.054;-9.494;2023-03-15T00:23:55;100883.25;;;16.50;42.56
57616;BME280;43816;52.054;-9.494;2023-03-15T00:24:06;100883.25;;;16.50;42.84
57616;BME280;43816;52.054;-9.494;2023-03-15T00:24:16;100856.47;;;16.37;42.88
57616;BME280;43816;52.054;-9.494;2023-03-15T00:24:26;100876.09;;;16.49;42.64
57616;BME280;43816;52.054;-9.494;2023-03-15T00:24:36;100882.41;;;16.49;42.50
57616;BME280;43816;52.054;-9.494;2023-03-15T00:24:47;100845.06;;;16.33;42.72
57616;BME280;43816;52.054;-9.494;2023-03-15T00:24:57;100872.16;;;16.43;42.95
57616;BME280;43816;52.054;-9.494;2023-03-15T00:25:08;100885.81;;;16.51;42.76
57616;BME280;43816;52.054;-9.494;2023-03-15T00:25:18;100885.13;;;16.49;42.90
57616;BME280;43816;52.054;-9.494;2023-03-15T00:25:29;100873.56;;;16.47;42.57
57616;BME280;43816;52.054;-9.494;2023-03-15T00:25:42;100877.81;;;16.50;42.79
57616;BME280;43816;52.054;-9.494;2023-03-15T00:25:53;100884.09;;;16.50;42.90
57616;BME280;43816;52.054;-9.494;2023-03-15T00:26:04;100878.13;;;16.46;42.86
57616;BME280;43816;52.054;-9.494;2023-03-15T00:26:14;100856.78;;;16.34;42.95
57616;BME280;43816;52.054;-9.494;2023-03-15T00:26:24;100869.28;;;16.44;42.61
57616;BME280;43816;52.054;-9.494;2023-03-15T00:26:35;100855.63;;;16.36;42.78
57616;BME280;43816;52.054;-9.494;2023-03-15T00:26:45;100848.81;;;16.32;42.94
57616;BME280;43816;52.054;-9.494;2023-03-15T00:26:55;100849.34;;;16.36;42.59
57616;BME280;43816;52.054;-9.494;2023-03-15T00:27:06;100874.56;;;16.46;42.94
57616;BME280;43816;52.054;-9.494;2023-03-15T00:27:16;100880.38;;;16.51;42.84
57616;BME280;43816;52.054;-9.494;2023-03-15T00:27:26;100876.97;;;16.49;42.81
57616;BME280;43816;52.054;-9.494;2023-03-15T00:27:48;100868.44;;;16.44;42.36
57616;BME280;43816;52.054;-9.494;2023-03-15T00:27:58;100856.78;;;16.34;42.79
57616;BME280;43816;52.054;-9.494;2023-03-15T00:28:09;100870.63;;;16.40;43.01
57616;BME280;43816;52.054;-9.494;2023-03-15T00:28:19;100879.69;;;16.49;42.92
57616;BME280;43816;52.054;-9.494;2023-03-15T00:28:30;100884.09;;;16.50;42.74
57616;BME280;43816;52.054;-9.494;2023-03-15T00:28:40;100885.81;;;16.51;43.00
57616;BME280;43816;52.054;-9.494;2023-03-15T00:28:51;100886.66;;;16.52;42.98
57616;BME280;43816;52.054;-9.494;2023-03-15T00:29:02;100884.97;;;16.51;42.82
57616;BME280;43816;52.054;-9.494;2023-03-15T00:29:12;100878.66;;;16.50;42.71
57616;BME280;43816;52.054;-9.494;2023-03-15T00:29:22;100879.84;;;16.48;42.48
57616;BME280;43816;52.054;-9.494;2023-03-15T00:29:32;100871.16;;;16.44;42.83
57616;BME280;43816;52.054;-9.494;2023-03-15T00:29:43;100862.78;;;16.37;43.13
57616;BME280;43816;52.054;-9.494;2023-03-15T00:29:53;100875.41;;;16.46;43.00
57616;BME280;43816;52.054;-9.494;2023-03-15T00:30:04;100872.16;;;16.43;42.94
57616;BME280;43816;52.054;-9.494;2023-03-15T00:30:14;100870.28;;;16.43;42.95
57616;BME280;43816;52.054;-9.494;2023-03-15T00:30:25;100868.75;;;16.41;42.95
57616;BME280;43816;52.054;-9.494;2023-03-15T00:30:35;100877.28;;;16.46;42.81
57616;BME280;43816;52.054;-9.494;2023-03-15T00:30:45;100881.38;;;16.50;42.48
57616;BME280;43816;52.054;-9.494;2023-03-15T00:31:14;100880.69;;;16.48;42.60
57616;BME280;43816;52.054;-9.494;2023-03-15T00:31:25;100882.72;;;16.46;42.77
57616;BME280;43816;52.054;-9.494;2023-03-15T00:31:35;100867.72;;;16.42;42.78
57616;BME280;43816;52.054;-9.494;2023-03-15T00:31:45;100884.09;;;16.50;42.75
57616;BME280;43816;52.054;-9.494;2023-03-15T00:31:55;100860.22;;;16.36;42.77
57616;BME280;43816;52.054;-9.494;2023-03-15T00:32:06;100864.31;;;16.40;42.66
57616;BME280;43816;52.054;-9.494;2023-03-15T00:32:16;100871.16;;;16.44;42.71
57616;BME280;43816;52.054;-9.494;2023-03-15T00:32:26;100891.25;;;16.51;43.06
57616;BME280;43816;52.054;-9.494;2023-03-15T00:32:37;100884.97;;;16.51;42.53
57616;BME280;43816;52.054;-9.494;2023-03-15T00:32:47;100885.13;;;16.49;42.44
57616;BME280;43816;52.054;-9.494;2023-03-15T00:32:57;100878.59;;;16.42;42.96
57616;BME280;43816;52.054;-9.494;2023-03-15T00:33:10;100878.81;;;16.49;42.93
57616;BME280;43816;52.054;-9.494;2023-03-15T00:33:21;100879.31;;;16.44;42.92
57616;BME280;43816;52.054;-9.494;2023-03-15T00:33:31;100872.84;;;16.45;42.88
57616;BME280;43816;52.054;-9.494;2023-03-15T00:33:42;100872.00;;;16.44;42.89
57616;BME280;43816;52.054;-9.494;2023-03-15T00:33:53;100884.44;;;16.47;42.87
57616;BME280;43816;52.054;-9.494;2023-03-15T00:34:03;100872.31;;;16.41;42.84
57616;BME280;43816;52.054;-9.494;2023-03-15T00:34:13;100867.41;;;16.45;42.94
57616;BME280;43816;52.054;-9.494;2023-03-15T00:34:23;100874.56;;;16.46;42.96
57616;BME280;43816;52.054;-9.494;2023-03-15T00:34:34;100888.69;;;16.50;42.67
57616;BME280;43816;52.054;-9.494;2023-03-15T00:34:44;100854.38;;;16.31;42.96
57616;BME280;43816;52.054;-9.494;2023-03-15T00:34:54;100862.91;;;16.36;42.65
57616;BME280;43816;52.054;-9.494;2023-03-15T00:35:05;100882.41;;;16.49;42.99
57616;BME280;43816;52.054;-9.494;2023-03-15T00:35:15;100881.00;;;16.45;42.87
57616;BME280;43816;52.054;-9.494;2023-03-15T00:35:26;100874.88;;;16.43;42.64
57616;BME280;43816;52.054;-9.494;2023-03-15T00:35:41;100884.44;;;16.47;42.71
57616;BME280;43816;52.054;-9.494;2023-03-15T00:35:52;100871.31;;;16.42;43.15
57616;BME280;43816;52.054;-9.494;2023-03-15T00:36:06;100875.72;;;16.43;42.62
57616;BME280;43816;52.054;-9.494;2023-03-15T00:36:18;100873.72;;;16.45;42.89
57616;BME280;43816;52.054;-9.494;2023-03-15T00:36:28;100874.88;;;16.43;42.86
57616;BME280;43816;52.054;-9.494;2023-03-15T00:36:39;100865.34;;;16.39;43.20
57616;BME280;43816;52.054;-9.494;2023-03-15T00:36:49;100865.34;;;16.39;43.01
57616;BME280;43816;52.054;-9.494;2023-03-15T00:36:59;100875.56;;;16.45;42.75
57616;BME280;43816;52.054;-9.494;2023-03-15T00:37:10;100883.41;;;16.48;43.00
57616;BME280;43816;52.054;-9.494;2023-03-15T00:37:20;100882.56;;;16.48;42.92
57616;BME280;43816;52.054;-9.494;2023-03-15T00:37:31;100870.44;;;16.42;42.62
57616;BME280;43816;52.054;-9.494;2023-03-15T00:37:41;100860.91;;;16.38;42.69
57616;BME280;43816;52.054;-9.494;2023-03-15T00:37:55;100879.69;;;16.49;42.60
57616;BME280;43816;52.054;-9.494;2023-03-15T00:38:06;100876.09;;;16.49;43.13
57616;BME280;43816;52.054;-9.494;2023-03-15T00:38:16;100866.72;;;16.43;42.90
57616;BME280;43816;52.054;-9.494;2023-03-15T00:38:26;100881.53;;;16.49;42.75
57616;BME280;43816;52.054;-9.494;2023-03-15T00:38:38;100876.97;;;16.49;42.90
57616;BME280;43816;52.054;-9.494;2023-03-15T00:38:50;100873.00;;;16.43;43.05
57616;BME280;43816;52.054;-9.494;2023-03-15T00:39:00;100864.16;;;16.41;42.69
57616;BME280;43816;52.054;-9.494;2023-03-15T00:39:11;100858.34;;;16.36;42.74
57616;BME280;43816;52.054;-9.494;2023-03-15T00:39:21;100855.47;;;16.38;42.88
57616;BME280;43816;52.054;-9.494;2023-03-15T00:39:31;100864.31;;;16.40;43.09
57616;BME280;43816;52.054;-9.494;2023-03-15T00:39:42;100877.66;;;16.51;42.77
57616;BME280;43816;52.054;-9.494;2023-03-15T00:39:52;100861.59;;;16.40;42.85
57616;BME280;43816;52.054;-9.494;2023-03-15T00:40:03;100869.59;;;16.41;42.89
57616;BME280;43816;52.054;-9.494;2023-03-15T00:40:13;100874.25;;;16.49;42.48
57616;BME280;43816;52.054;-9.494;2023-03-15T00:40:24;100883.25;;;16.50;42.72
57616;BME280;43816;52.054;-9.494;2023-03-15T00:40:36;100858.19;;;16.38;43.02
57616;BME280;43816;52.054;-9.494;2023-03-15T00:40:46;100856.47;;;16.37;42.46
57616;BME280;43816;52.054;-9.494;2023-03-15T00:40:57;100862.47;;;16.40;43.11
57616;BME280;43816;52.054;-9.494;2023-03-15T00:41:09;100872.25;;;16.51;42.71
57616;BME280;43816;52.054;-9.494;2023-03-15T00:41:21;100849.88;;;16.39;42.73
57616;BME280;43816;52.054;-9.494;2023-03-15T00:41:31;100863.31;;;16.41;43.04
57616;BME280;43816;52.054;-9.494;2023-03-15T00:41:41;100874.41;;;16.48;43.18
57616;BME280;43816;52.054;-9.494;2023-03-15T00:41:52;100861.59;;;16.40;43.01
57616;BME280;43816;52.054;-9.494;2023-03-15T00:42:02;100849.66;;;16.33;42.74
57616;BME280;43816;52.054;-9.494;2023-03-15T00:42:13;100872.53;;;16.48;42.58
57616;BME280;43816;52.054;-9.494;2023-03-15T00:42:24;100868.44;;;16.44;43.09
57616;BME280;43816;52.054;-9.494;2023-03-15T00:42:34;100873.56;;;16.47;42.97
57616;BME280;43816;52.054;-9.494;2023-03-15T00:42:44;100857.03;;;16.40;42.64
57616;BME280;43816;52.054;-9.494;2023-03-15T00:42:54;100868.16;;;16.47;42.94
57616;BME280;43816;52.054;-9.494;2023-03-15T00:43:05;100863.00;;;16.44;42.65
57616;BME280;43816;52.054;-9.494;2023-03-15T00:43:15;100854.13;;;16.42;42.53
57616;BME280;43816;52.054;-9.494;2023-03-15T00:43:25;100876.09;;;16.49;42.74
57616;BME280;43816;52.054;-9.494;2023-03-15T00:43:35;100854.78;;;16.36;42.97
57616;BME280;43816;52.054;-9.494;2023-03-15T00:43:46;100848.31;;;16.37;42.70
57616;BME280;43816;52.054;-9.494;2023-03-15T00:43:56;100850.03;;;16.38;43.03
57616;BME280;43816;52.054;-9.494;2023-03-15T00:44:06;100837.94;;;16.32;43.03
57616;BME280;43816;52.054;-9.494;2023-03-15T00:44:17;100861.28;;;16.43;42.90
57616;BME280;43816;52.054;-9.494;2023-03-15T00:44:27;100861.84;;;16.46;43.03
57616;BME280;43816;52.054;-9.494;2023-03-15T00:44:37;100862.00;;;16.45;42.82
57616;BME280;43816;52.054;-9.494;2023-03-15T00:44:49;100858.13;;;16.48;42.49
57616;BME280;43816;52.054;-9.494;2023-03-15T00:44:59;100868.16;;;16.47;42.88
57616;BME280;43816;52.054;-9.494;2023-03-15T00:45:09;100845.44;;;16.38;42.69
57616;BME280;43816;52.054;-9.494;2023-03-15T00:45:20;100863.56;;;16.48;42.91
57616;BME280;43816;52.054;-9.494;2023-03-15T00:45:31;100870.53;;;16.50;42.82
57616;BME280;43816;52.054;-9.494;2023-03-15T00:45:41;100857.44;;;16.45;42.77
57616;BME280;43816;52.054;-9.494;2023-03-15T00:45:52;100867.81;;;16.50;42.98
57616;BME280;43816;52.054;-9.494;2023-03-15T00:46:03;100861.28;;;16.43;42.67
57616;BME280;43816;52.054;-9.494;2023-03-15T00:46:15;100863.25;;;16.51;42.76
57616;BME280;43816;52.054;-9.494;2023-03-15T00:46:28;100863.84;;;16.44;42.81
57616;BME280;43816;52.054;-9.494;2023-03-15T00:46:39;100851.28;;;16.43;42.71
57616;BME280;43816;52.054;-9.494;2023-03-15T00:46:49;100822.25;;;16.26;43.08
57616;BME280;43816;52.054;-9.494;2023-03-15T00:47:00;100835.06;;;16.34;42.81
57616;BME280;43816;52.054;-9.494;2023-03-15T00:47:11;100858.97;;;16.48;42.81
57616;BME280;43816;52.054;-9.494;2023-03-15T00:47:22;100855.56;;;16.46;42.75
57616;BME280;43816;52.054;-9.494;2023-03-15T00:47:32;100855.41;;;16.48;42.89
57616;BME280;43816;52.054;-9.494;2023-03-15T00:47:42;100853.84;;;16.45;42.88
57616;BME280;43816;52.054;-9.494;2023-03-15T00:47:54;100833.06;;;16.36;42.74
57616;BME280;43816;52.054;-9.494;2023-03-15T00:48:04;100852.69;;;16.48;42.83
57616;BME280;43816;52.054;-9.494;2023-03-15T00:48:15;100841.75;;;16.39;42.95
57616;BME280;43816;52.054;-9.494;2023-03-15T00:48:25;100850.44;;;16.43;42.70
57616;BME280;43816;52.054;-9.494;2023-03-15T00:48:35;100841.59;;;16.41;43.07
57616;BME280;43816;52.054;-9.494;2023-03-15T00:48:47;100848.41;;;16.45;42.92
57616;BME280;43816;52.054;-9.494;2023-03-15T00:48:58;100846.88;;;16.42;42.62
57616;BME280;43816;52.054;-9.494;2023-03-15T00:49:08;100831.63;;;16.32;42.63
57616;BME280;43816;52.054;-9.494;2023-03-15T00:49:18;100856.94;;;16.50;42.18
57616;BME280;43816;52.054;-9.494;2023-03-15T00:49:28;100836.91;;;16.33;42.86
57616;BME280;43816;52.054;-9.494;2023-03-15T00:49:39;100845.00;;;16.43;42.96
57616;BME280;43816;52.054;-9.494;2023-03-15T00:49:50;100854.00;;;16.43;42.73
57616;BME280;43816;52.054;-9.494;2023-03-15T00:50:00;100832.38;;;16.34;42.80
57616;BME280;43816;52.054;-9.494;2023-03-15T00:50:11;100856.72;;;16.43;43.12
57616;BME280;43816;52.054;-9.494;2023-03-15T00:50:22;100861.53;;;16.50;42.72
57616;BME280;43816;52.054;-9.494;2023-03-15T00:50:32;100858.28;;;16.46;42.64
57616;BME280;43816;52.054;-9.494;2023-03-15T00:50:42;100848.88;;;16.40;42.85
57616;BME280;43816;52.054;-9.494;2023-03-15T00:51:09;100856.41;;;16.46;42.41
57616;BME280;43816;52.054;-9.494;2023-03-15T00:51:22;100870.53;;;16.50;42.51
57616;BME280;43816;52.054;-9.494;2023-03-15T00:51:32;100855.88;;;16.43;42.68
57616;BME280;43816;52.054;-9.494;2023-03-15T00:51:43;100857.59;;;16.44;42.64
57616;BME280;43816;52.054;-9.494;2023-03-15T00:51:54;100861.84;;;16.46;42.72
57616;BME280;43816;52.054;-9.494;2023-03-15T00:52:05;100856.72;;;16.43;42.69
57616;BME280;43816;52.054;-9.494;2023-03-15T00:52:17;100863.41;;;16.49;42.76
57616;BME280;43816;52.054;-9.494;2023-03-15T00:52:33;100864.69;;;16.45;42.44
57616;BME280;43816;52.054;-9.494;2023-03-15T00:52:44;100862.72;;;16.47;43.04
57616;BME280;43816;52.054;-9.494;2023-03-15T00:52:54;100857.88;;;16.41;42.98
57616;BME280;43816;52.054;-9.494;2023-03-15T00:53:04;100855.56;;;16.46;42.69
57616;BME280;43816;52.054;-9.494;2023-03-15T00:53:15;100865.25;;;16.49;42.91
57616;BME280;43816;52.054;-9.494;2023-03-15T00:53:25;100825.81;;;16.26;42.92
57616;BME280;43816;52.054;-9.494;2023-03-15T00:53:37;100844.16;;;16.42;43.07
57616;BME280;43816;52.054;-9.494;2023-03-15T00:53:49;100857.59;;;16.44;43.00
57616;BME280;43816;52.054;-9.494;2023-03-15T00:54:00;100855.88;;;16.43;42.72
57616;BME280;43816;52.054;-9.494;2023-03-15T00:54:10;100851.84;;;16.47;42.53
57616;BME280;43816;52.054;-9.494;2023-03-15T00:54:20;100832.19;;;16.35;42.68
57616;BME280;43816;52.054;-9.494;2023-03-15T00:54:31;100845.84;;;16.43;42.76
57616;BME280;43816;52.054;-9.494;2023-03-15T00:54:41;100842.28;;;16.43;42.96
57616;BME280;43816;52.054;-9.494;2023-03-15T00:54:52;100852.84;;;16.46;42.80
57616;BME280;43816;52.054;-9.494;2023-03-15T00:55:04;100854.88;;;16.44;42.90
57616;BME280;43816;52.054;-9.494;2023-03-15T00:55:17;100857.97;;;16.49;42.96
57616;BME280;43816;52.054;-9.494;2023-03-15T00:55:27;100827.78;;;16.34;42.42
57616;BME280;43816;52.054;-9.494;2023-03-15T00:55:38;100847.41;;;16.46;42.77
57616;BME280;43816;52.054;-9.494;2023-03-15T00:55:48;100847.72;;;16.43;42.63
57616;BME280;43816;52.054;-9.494;2023-03-15T00:56:03;100831.63;;;16.32;42.96
57616;BME280;43816;52.054;-9.494;2023-03-15T00:56:18;100848.56;;;16.43;42.95
57616;BME280;43816;52.054;-9.494;2023-03-15T00:56:29;100831.88;;;16.38;42.99